N G Explorer — C6WR2 — position and weather

sailwx.info

Track history (hours):
 
Tides and Currents Weather Stations Pressure Air Temp Water Temp Dewpoint Dewpoint Depression Visibility Wind Speed Wind Dir Waves Ship Positions

N G Explorer

Last reported at 2019-Sep-20 19:07 UTC. Time now 2019-Sep-21 00:31 UTC.
Position N 47°21' W 052°38'.

Length 112 m; draft 4.8 m.

Type: Passenger vessel. MMSI: 309336000.

Date/timePositionNaut miles runAvg speedWind from/ knotsBaromVisibWave heightAir tempDewpointWater temp
2019-Sep-20 19:07N 47°21' W 052°38'415.1
2019-Sep-20 18:49N 47°25' W 052°37'714.0
2019-Sep-20 18:20N 47°32' W 052°37'411.0
2019-Sep-20 18:00N 47°34' W 052°41'1 1.0
2019-Sep-20 17:27N 47°34' W 052°42'0 0.0
2019-Sep-20 16:57N 47°34' W 052°42'0 0.0
2019-Sep-20 16:24N 47°34' W 052°42'0 0.0
2019-Sep-20 16:00N 47°34' W 052°42'0 0.0
2019-Sep-20 15:27N 47°34' W 052°42'0 0.0
2019-Sep-20 14:57N 47°34' W 052°42'0 0.0
2019-Sep-20 14:27N 47°34' W 052°42'0 0.0
2019-Sep-20 14:00N 47°34' W 052°42'0 0.0
2019-Sep-20 13:24N 47°34' W 052°42'0 0.0
2019-Sep-20 12:57N 47°34' W 052°42'0 0.0
2019-Sep-20 12:27N 47°34' W 052°42'0 0.0
2019-Sep-20 11:51N 47°34' W 052°42'0 0.0
2019-Sep-20 11:27N 47°34' W 052°42'0 0.0
2019-Sep-20 10:57N 47°34' W 052°42'0 0.0
2019-Sep-20 10:27N 47°34' W 052°42'0 0.0
2019-Sep-20 09:57N 47°34' W 052°42'0 0.0
2019-Sep-20 09:27N 47°34' W 052°42'0 0.0
2019-Sep-20 08:57N 47°34' W 052°42'0 0.0
2019-Sep-20 08:27N 47°34' W 052°42'0 0.0
2019-Sep-20 07:57N 47°34' W 052°42'0 0.0
2019-Sep-20 07:27N 47°34' W 052°42'0 0.0
2019-Sep-20 06:51N 47°34' W 052°42'0 0.0
2019-Sep-20 06:30N 47°34' W 052°42'0 0.0
2019-Sep-20 06:00N 47°34' W 052°42'0 0.0
2019-Sep-20 05:30N 47°34' W 052°42'0 0.0
2019-Sep-20 05:00N 47°34' W 052°42'0 0.0
2019-Sep-20 04:27N 47°34' W 052°42'0 0.0
2019-Sep-20 03:57N 47°34' W 052°42'0 0.0
2019-Sep-20 03:27N 47°34' W 052°42'0 0.0
2019-Sep-20 02:57N 47°34' W 052°42'0 0.0
2019-Sep-20 02:27N 47°34' W 052°42'0 0.0
2019-Sep-20 02:00N 47°34' W 052°42'0 0.0
2019-Sep-20 01:30N 47°34' W 052°42'0 0.0
2019-Sep-20 00:57N 47°34' W 052°42'0 0.0
2019-Sep-20 00:27N 47°34' W 052°42'0 0.0
2019-Sep-19 23:57N 47°34' W 052°42'0 0.0
2019-Sep-19 23:27N 47°34' W 052°42'0 0.0
2019-Sep-19 22:57N 47°34' W 052°42'0 0.0
2019-Sep-19 22:27N 47°34' W 052°42'0 0.0
2019-Sep-19 21:57N 47°34' W 052°42'0 0.0
2019-Sep-19 21:30N 47°34' W 052°42'0 0.0
2019-Sep-19 21:00N 47°34' W 052°42'0 0.1
2019-Sep-19 20:27N 47°34' W 052°42'0 0.0
2019-Sep-19 19:57N 47°34' W 052°42'0 0.0
2019-Sep-19 19:27N 47°34' W 052°42'0 0.0
2019-Sep-19 18:57N 47°34' W 052°42'0 0.0
2019-Sep-19 18:27N 47°34' W 052°42'0 0.0
2019-Sep-19 17:57N 47°34' W 052°42'0 0.0
2019-Sep-19 17:27N 47°34' W 052°42'0 0.0
2019-Sep-19 16:54N 47°34' W 052°42'0 0.0
2019-Sep-19 16:27N 47°34' W 052°42'0 0.0
2019-Sep-19 15:51N 47°34' W 052°42'0 0.0
2019-Sep-19 15:30N 47°34' W 052°42'0 0.0
2019-Sep-19 14:57N 47°34' W 052°42'0 0.0
2019-Sep-19 14:30N 47°34' W 052°42'3 5.3
2019-Sep-19 13:56N 47°34' W 052°38'5 9.3
2019-Sep-19 13:26N 47°39' W 052°36'  
2019-Sep-17 06:59N 49°23' W 058°21'5 9.7
2019-Sep-17 06:30N 49°20' W 058°26'5 9.8
2019-Sep-17 06:01N 49°16' W 058°30'  
2019-Sep-13 00:20N 47°13' W 052°36'615.1
2019-Sep-12 23:56N 47°19' W 052°35'715.6
2019-Sep-12 23:29N 47°26' W 052°33'714.4
2019-Sep-12 22:59N 47°33' W 052°37'4 7.3
2019-Sep-12 22:28N 47°34' W 052°42'0 0.0
2019-Sep-12 21:58N 47°34' W 052°42'0 0.0
2019-Sep-12 21:29N 47°34' W 052°42'0 0.0
2019-Sep-12 20:59N 47°34' W 052°42'0 0.0
2019-Sep-12 20:26N 47°34' W 052°42'0 0.0
2019-Sep-12 19:56N 47°34' W 052°42'0 0.0
2019-Sep-12 19:29N 47°34' W 052°42'0 0.0
2019-Sep-12 17:59N 47°34' W 052°42'0 0.0
2019-Sep-12 17:02N 47°34' W 052°42'0 0.0
2019-Sep-12 16:41N 47°34' W 052°42'0 0.0
2019-Sep-12 16:26N 47°34' W 052°42'0 0.0
2019-Sep-12 15:50N 47°34' W 052°42'0 0.0
2019-Sep-12 15:20N 47°34' W 052°42'0 0.0
2019-Sep-12 14:02N 47°34' W 052°42'0 0.0
2019-Sep-12 13:41N 47°34' W 052°42'0 0.0
2019-Sep-12 13:29N 47°34' W 052°42'0 0.0
2019-Sep-12 12:23N 47°34' W 052°42'0 0.0
2019-Sep-12 11:59N 47°34' W 052°42'0 0.0
2019-Sep-12 11:23N 47°34' W 052°42'0 0.0
2019-Sep-12 09:39N 47°34' W 052°42'0 0.7
2019-Sep-12 09:29N 47°34' W 052°42'3 6.1
2019-Sep-12 08:57N 47°35' W 052°38'611.3
2019-Sep-12 08:25N 47°40' W 052°36'410.6
2019-Sep-12 08:00N 47°45' W 052°36'  
Track history (hours):
 
Tides and Currents Weather Stations Pressure Air Temp Water Temp Dewpoint Dewpoint Depression Visibility Wind Speed Wind Dir Waves Ship Positions

N G Explorer

Last reported at 2019-Sep-20 19:07 UTC. Time now 2019-Sep-21 00:31 UTC.
Position N 47°21' W 052°38'.

Length 112 m; draft 4.8 m.

Type: Passenger vessel. MMSI: 309336000.

Date/timePositionNaut miles runAvg speedWind from/ knotsBaromVisibWave heightAir tempDewpointWater temp
2019-Sep-20 19:07N 47°21' W 052°38'415.1
2019-Sep-20 18:49N 47°25' W 052°37'714.0
2019-Sep-20 18:20N 47°32' W 052°37'411.0
2019-Sep-20 18:00N 47°34' W 052°41'1 1.0
2019-Sep-20 17:27N 47°34' W 052°42'0 0.0
2019-Sep-20 16:57N 47°34' W 052°42'0 0.0
2019-Sep-20 16:24N 47°34' W 052°42'0 0.0
2019-Sep-20 16:00N 47°34' W 052°42'0 0.0
2019-Sep-20 15:27N 47°34' W 052°42'0 0.0
2019-Sep-20 14:57N 47°34' W 052°42'0 0.0
2019-Sep-20 14:27N 47°34' W 052°42'0 0.0
2019-Sep-20 14:00N 47°34' W 052°42'0 0.0
2019-Sep-20 13:24N 47°34' W 052°42'0 0.0
2019-Sep-20 12:57N 47°34' W 052°42'0 0.0
2019-Sep-20 12:27N 47°34' W 052°42'0 0.0
2019-Sep-20 11:51N 47°34' W 052°42'0 0.0
2019-Sep-20 11:27N 47°34' W 052°42'0 0.0
2019-Sep-20 10:57N 47°34' W 052°42'0 0.0
2019-Sep-20 10:27N 47°34' W 052°42'0 0.0
2019-Sep-20 09:57N 47°34' W 052°42'0 0.0
2019-Sep-20 09:27N 47°34' W 052°42'0 0.0
2019-Sep-20 08:57N 47°34' W 052°42'0 0.0
2019-Sep-20 08:27N 47°34' W 052°42'0 0.0
2019-Sep-20 07:57N 47°34' W 052°42'0 0.0
2019-Sep-20 07:27N 47°34' W 052°42'0 0.0
2019-Sep-20 06:51N 47°34' W 052°42'0 0.0
2019-Sep-20 06:30N 47°34' W 052°42'0 0.0
2019-Sep-20 06:00N 47°34' W 052°42'0 0.0
2019-Sep-20 05:30N 47°34' W 052°42'0 0.0
2019-Sep-20 05:00N 47°34' W 052°42'0 0.0
2019-Sep-20 04:27N 47°34' W 052°42'0 0.0
2019-Sep-20 03:57N 47°34' W 052°42'0 0.0
2019-Sep-20 03:27N 47°34' W 052°42'0 0.0
2019-Sep-20 02:57N 47°34' W 052°42'0 0.0
2019-Sep-20 02:27N 47°34' W 052°42'0 0.0
2019-Sep-20 02:00N 47°34' W 052°42'0 0.0
2019-Sep-20 01:30N 47°34' W 052°42'0 0.0
2019-Sep-20 00:57N 47°34' W 052°42'0 0.0
2019-Sep-20 00:27N 47°34' W 052°42'0 0.0
2019-Sep-19 23:57N 47°34' W 052°42'0 0.0
2019-Sep-19 23:27N 47°34' W 052°42'0 0.0
2019-Sep-19 22:57N 47°34' W 052°42'0 0.0
2019-Sep-19 22:27N 47°34' W 052°42'0 0.0
2019-Sep-19 21:57N 47°34' W 052°42'0 0.0
2019-Sep-19 21:30N 47°34' W 052°42'0 0.0
2019-Sep-19 21:00N 47°34' W 052°42'0 0.1
2019-Sep-19 20:27N 47°34' W 052°42'0 0.0
2019-Sep-19 19:57N 47°34' W 052°42'0 0.0
2019-Sep-19 19:27N 47°34' W 052°42'0 0.0
2019-Sep-19 18:57N 47°34' W 052°42'0 0.0
2019-Sep-19 18:27N 47°34' W 052°42'0 0.0
2019-Sep-19 17:57N 47°34' W 052°42'0 0.0
2019-Sep-19 17:27N 47°34' W 052°42'0 0.0
2019-Sep-19 16:54N 47°34' W 052°42'0 0.0
2019-Sep-19 16:27N 47°34' W 052°42'0 0.0
2019-Sep-19 15:51N 47°34' W 052°42'0 0.0
2019-Sep-19 15:30N 47°34' W 052°42'0 0.0
2019-Sep-19 14:57N 47°34' W 052°42'0 0.0
2019-Sep-19 14:30N 47°34' W 052°42'3 5.3
2019-Sep-19 13:56N 47°34' W 052°38'5 9.3
2019-Sep-19 13:26N 47°39' W 052°36'  
2019-Sep-17 06:59N 49°23' W 058°21'5 9.7
2019-Sep-17 06:30N 49°20' W 058°26'5 9.8
2019-Sep-17 06:01N 49°16' W 058°30'  
2019-Sep-13 00:20N 47°13' W 052°36'615.1
2019-Sep-12 23:56N 47°19' W 052°35'715.6
2019-Sep-12 23:29N 47°26' W 052°33'714.4
2019-Sep-12 22:59N 47°33' W 052°37'4 7.3
2019-Sep-12 22:28N 47°34' W 052°42'0 0.0
2019-Sep-12 21:58N 47°34' W 052°42'0 0.0
2019-Sep-12 21:29N 47°34' W 052°42'0 0.0
2019-Sep-12 20:59N 47°34' W 052°42'0 0.0
2019-Sep-12 20:26N 47°34' W 052°42'0 0.0
2019-Sep-12 19:56N 47°34' W 052°42'0 0.0
2019-Sep-12 19:29N 47°34' W 052°42'0 0.0
2019-Sep-12 17:59N 47°34' W 052°42'0 0.0
2019-Sep-12 17:02N 47°34' W 052°42'0 0.0
2019-Sep-12 16:41N 47°34' W 052°42'0 0.0
2019-Sep-12 16:26N 47°34' W 052°42'0 0.0
2019-Sep-12 15:50N 47°34' W 052°42'0 0.0
2019-Sep-12 15:20N 47°34' W 052°42'0 0.0
2019-Sep-12 14:02N 47°34' W 052°42'0 0.0
2019-Sep-12 13:41N 47°34' W 052°42'0 0.0
2019-Sep-12 13:29N 47°34' W 052°42'0 0.0
2019-Sep-12 12:23N 47°34' W 052°42'0 0.0
2019-Sep-12 11:59N 47°34' W 052°42'0 0.0
2019-Sep-12 11:23N 47°34' W 052°42'0 0.0
2019-Sep-12 09:39N 47°34' W 052°42'0 0.7
2019-Sep-12 09:29N 47°34' W 052°42'3 6.1
2019-Sep-12 08:57N 47°35' W 052°38'611.3
2019-Sep-12 08:25N 47°40' W 052°36'410.6
2019-Sep-12 08:00N 47°45' W 052°36'  

Dump ship's entire track history